Time;durP1;ratioP1;P1;durP2;ratioP2;P2;SDS_P1;SDS_P2;PMS_P1;PMS_P2;Temp;Humidity;BMP_temperature;BMP_pressure;BME280_temperature;BME280_humidity;BME280_pressure;Samples;Min_cycle;Max_cycle;Signal;HPM_P1;HPM_P2
2022/05/22 00:01:53;;;;;;;;;;;;;;;21.08;39.87;99825.66;4383845;32;20001;-82
2022/05/22 00:04:20;;;;;;;;;;;;;;;21.22;39.88;99817.37;4385227;32;20001;-80
2022/05/22 00:06:48;;;;;;;;;;;;;;;21.32;39.93;99818.87;4383025;32;20000;-81
2022/05/22 00:09:15;;;;;;;;;;;;;;;21.23;40.10;99812.09;4385155;32;19998;-82
2022/05/22 00:11:43;;;;;;;;;;;;;;;21.23;41.20;99806.81;4384831;32;19970;-81
2022/05/22 00:14:11;;;;;;;;;;;;;;;21.08;40.97;99815.12;4384027;32;19983;-82
2022/05/22 00:16:42;;;;;;;;;;;;;;;21.14;40.20;99804.44;4385914;32;19978;-81
2022/05/22 00:19:15;;;;;;;;;;;;;;;21.06;40.62;99806.44;4383246;32;20335;-80
2022/05/22 00:21:42;;;;;;;;;;;;;;;21.00;40.52;99806.59;4106011;32;10001306;-82
2022/05/22 00:24:15;;;;;;;;;;;;;;;21.00;40.55;99801.34;4399154;32;19970;-81
2022/05/22 00:26:44;;;;;;;;;;;;;;;20.99;40.09;99794.31;4399337;32;19974;-82
2022/05/22 00:29:11;;;;;;;;;;;;;;;21.00;40.58;99793.44;4400047;32;20038;-82
2022/05/22 00:31:38;;;;;;;;;;;;;;;20.92;40.49;99795.41;4400301;32;19982;-82
2022/05/22 00:34:05;;;;;;;;;;;;;;;20.84;41.17;99790.38;4399378;32;19974;-81
2022/05/22 00:36:32;;;;;;;;;;;;;;;20.90;40.77;99785.81;4393508;32;19998;-80
2022/05/22 00:39:01;;;;;;;;;;;;;;;20.66;41.29;99781.19;4399649;32;19982;-81
2022/05/22 00:41:28;;;;;;;;;;;;;;;20.77;40.96;99792.31;4399659;32;20045;-81
2022/05/22 00:43:56;;;;;;;;;;;;;;;20.40;41.06;99790.56;4400442;32;19986;-81
2022/05/22 00:46:23;;;;;;;;;;;;;;;20.34;41.41;99790.72;4398251;32;19997;-82
2022/05/22 00:48:54;;;;;;;;;;;;;;;20.47;41.21;99790.41;4399888;32;20012;-81
2022/05/22 00:51:21;;;;;;;;;;;;;;;20.55;41.06;99789.34;4398113;32;20038;-80
2022/05/22 00:53:49;;;;;;;;;;;;;;;20.39;41.44;99794.09;4399273;32;19974;-82
2022/05/22 00:56:18;;;;;;;;;;;;;;;20.48;41.27;99792.12;4398854;32;20846;-83
2022/05/22 00:58:45;;;;;;;;;;;;;;;20.36;41.83;99799.44;4390442;32;20414;-82
2022/05/22 01:01:12;;;;;;;;;;;;;;;20.14;42.38;99792.97;4382989;32;20733;-80
2022/05/22 01:03:39;;;;;;;;;;;;;;;20.30;42.26;99799.59;4384430;32;19986;-82
2022/05/22 01:06:11;;;;;;;;;;;;;;;20.23;41.91;99792.75;4383537;32;20013;-81
2022/05/22 01:08:39;;;;;;;;;;;;;;;20.24;42.39;99799.72;4384610;32;20304;-80
2022/05/22 01:11:11;;;;;;;;;;;;;;;20.25;41.91;99790.94;4384645;32;19987;-82
2022/05/22 01:13:45;;;;;;;;;;;;;;;20.26;42.26;99787.44;4382922;32;20045;-82
2022/05/22 01:16:12;;;;;;;;;;;;;;;20.19;42.80;99789.31;4383947;32;20081;-81
2022/05/22 01:18:43;;;;;;;;;;;;;;;20.16;42.96;99785.91;4383597;32;19974;-81
2022/05/22 01:21:20;;;;;;;;;;;;;;;20.00;43.18;99782.78;4384094;32;20383;-82
2022/05/22 01:23:47;;;;;;;;;;;;;;;20.18;41.86;99784.09;4382372;32;20013;-83
2022/05/22 01:26:19;;;;;;;;;;;;;;;20.19;41.78;99785.81;4384057;32;19979;-82
2022/05/22 01:28:48;;;;;;;;;;;;;;;20.23;41.31;99784.88;4384721;32;19993;-82
2022/05/22 01:31:15;;;;;;;;;;;;;;;20.29;40.55;99784.69;4384715;32;19994;-82
2022/05/22 01:33:42;;;;;;;;;;;;;;;20.30;40.85;99783.81;4389883;32;20056;-80
2022/05/22 01:36:09;;;;;;;;;;;;;;;20.41;40.50;99787.03;4384190;32;19982;-80
2022/05/22 01:38:40;;;;;;;;;;;;;;;20.38;41.44;99773.94;4379189;32;19974;-82
2022/05/22 01:41:08;;;;;;;;;;;;;;;20.28;41.01;99780.34;4383354;32;19971;-82
2022/05/22 01:43:36;;;;;;;;;;;;;;;20.36;40.94;99786.28;4384449;32;19982;-83
2022/05/22 01:46:07;;;;;;;;;;;;;;;20.35;40.71;99776.66;4383464;32;20017;-82
2022/05/22 01:48:35;;;;;;;;;;;;;;;20.42;40.41;99782.63;4384376;32;20331;-82
2022/05/22 01:51:02;;;;;;;;;;;;;;;20.37;39.34;99780.13;4384242;32;19978;-81
2022/05/22 01:53:33;;;;;;;;;;;;;;;20.36;39.63;99783.66;4382517;32;20012;-81
2022/05/22 01:56:00;;;;;;;;;;;;;;;20.16;40.29;99775.38;4384464;32;20320;-82
2022/05/22 01:58:28;;;;;;;;;;;;;;;20.56;37.20;99780.56;4385921;32;20252;-82
2022/05/22 02:00:55;;;;;;;;;;;;;;;20.41;39.08;99776.50;4386250;32;20032;-80
2022/05/22 02:03:22;;;;;;;;;;;;;;;20.56;39.89;99779.69;4386164;32;20058;-82
2022/05/22 02:05:49;;;;;;;;;;;;;;;20.59;40.45;99775.22;4385981;32;19982;-81
2022/05/22 02:08:19;;;;;;;;;;;;;;;20.59;40.09;99771.72;4386501;32;20032;-82
2022/05/22 02:10:47;;;;;;;;;;;;;;;20.57;39.92;99770.91;4386207;32;20021;-82
2022/05/22 02:13:18;;;;;;;;;;;;;;;20.63;39.55;99765.47;4399838;32;20469;-80
2022/05/22 02:15:45;;;;;;;;;;;;;;;20.46;39.68;99762.41;4399322;32;19985;-81
2022/05/22 02:18:13;;;;;;;;;;;;;;;20.49;40.24;99763.19;4401787;32;20019;-81
2022/05/22 02:20:40;;;;;;;;;;;;;;;20.53;40.10;99769.25;4400249;32;20047;-81
2022/05/22 02:23:06;;;;;;;;;;;;;;;20.32;40.39;99766.22;4401048;32;19994;-82
2022/05/22 02:25:35;;;;;;;;;;;;;;;20.52;39.68;99772.81;4401072;32;19998;-81
2022/05/22 02:28:03;;;;;;;;;;;;;;;20.47;40.27;99764.13;4401043;32;20037;-82
2022/05/22 02:30:31;;;;;;;;;;;;;;;20.58;40.26;99767.34;4401218;32;19990;-82
2022/05/22 02:32:58;;;;;;;;;;;;;;;20.65;39.68;99768.94;4400897;32;19982;-80
2022/05/22 02:35:27;;;;;;;;;;;;;;;20.59;40.08;99771.72;4400794;32;19993;-80
2022/05/22 02:37:58;;;;;;;;;;;;;;;20.37;40.16;99769.59;4401466;32;19986;-82
2022/05/22 02:40:27;;;;;;;;;;;;;;;20.37;40.22;99769.59;4400816;32;20082;-82
2022/05/22 02:42:56;;;;;;;;;;;;;;;19.98;41.59;99777.56;4400368;32;20065;-79
2022/05/22 02:45:25;;;;;;;;;;;;;;;20.19;41.26;99775.31;4401138;32;20352;-80
2022/05/22 02:47:53;;;;;;;;;;;;;;;19.98;41.14;99777.56;4399844;32;20311;-80
2022/05/22 02:50:22;;;;;;;;;;;;;;;20.15;40.45;99773.66;4401266;32;19986;-81
2022/05/22 02:52:49;;;;;;;;;;;;;;;20.15;39.83;99778.94;4401164;32;19993;-83
2022/05/22 02:55:19;;;;;;;;;;;;;;;20.04;39.45;99775.69;4400566;32;20304;-82
2022/05/22 02:57:47;;;;;;;;;;;;;;;19.91;40.23;99776.00;4400427;32;20024;-80
2022/05/22 03:00:16;;;;;;;;;;;;;;;20.20;38.54;99771.81;4401067;32;19978;-81
2022/05/22 03:02:45;;;;;;;;;;;;;;;20.23;37.87;99776.09;4399582;32;20086;-83
2022/05/22 03:05:12;;;;;;;;;;;;;;;20.16;37.94;99778.00;4400370;32;19990;-83
2022/05/22 03:07:46;;;;;;;;;;;;;;;19.97;38.57;99786.34;4400948;32;19992;-82
2022/05/22 03:10:17;;;;;;;;;;;;;;;20.11;38.15;99777.28;4400798;32;19979;-82
2022/05/22 03:12:44;;;;;;;;;;;;;;;20.10;38.07;99786.94;4400766;32;20284;-80
2022/05/22 03:15:15;;;;;;;;;;;;;;;20.03;38.04;99773.97;4400957;32;20332;-79
2022/05/22 03:17:42;;;;;;;;;;;;;;;20.29;37.04;99779.44;4399998;32;20001;-81
2022/05/22 03:20:10;;;;;;;;;;;;;;;19.85;38.20;99780.53;4399961;32;20392;-82
2022/05/22 03:22:37;;;;;;;;;;;;;;;20.07;37.66;99778.22;4090556;32;20558;-80
2022/05/22 03:25:06;;;;;;;;;;;;;;;20.18;37.30;99781.47;4400336;32;19989;-83
2022/05/22 03:27:33;;;;;;;;;;;;;;;20.14;37.08;99774.56;4400880;32;19996;-83
2022/05/22 03:30:01;;;;;;;;;;;;;;;19.95;38.52;99777.63;4400692;32;19978;-82
2022/05/22 03:32:28;;;;;;;;;;;;;;;19.92;38.45;99777.72;4400103;32;20001;-82
2022/05/22 03:34:55;;;;;;;;;;;;;;;19.87;38.24;99774.31;4400981;32;20324;-81
2022/05/22 03:37:26;;;;;;;;;;;;;;;20.11;38.57;99777.28;4399953;32;20362;-80
2022/05/22 03:39:54;;;;;;;;;;;;;;;19.94;39.11;99778.53;4397129;32;19982;-82
2022/05/22 03:42:24;;;;;;;;;;;;;;;20.20;38.55;99777.91;4400841;32;20065;-81
2022/05/22 03:44:52;;;;;;;;;;;;;;;20.26;38.44;99786.53;4411095;32;19985;-80
2022/05/22 03:47:19;;;;;;;;;;;;;;;19.88;39.39;99791.81;4400598;32;20024;-80
2022/05/22 03:49:46;;;;;;;;;;;;;;;19.82;39.83;99791.97;4400679;32;20713;-83
2022/05/22 03:52:14;;;;;;;;;;;;;;;20.18;38.56;99799.88;4399926;32;20720;-83
2022/05/22 03:54:41;;;;;;;;;;;;;;;19.84;39.69;99795.37;4383726;32;20345;-79
2022/05/22 03:57:09;;;;;;;;;;;;;;;19.82;40.13;99797.22;4399913;32;19979;-82
2022/05/22 03:59:40;;;;;;;;;;;;;;;20.08;38.62;99803.63;4399862;32;20001;-83
2022/05/22 04:02:07;;;;;;;;;;;;;;;20.01;39.26;99808.16;4399794;32;20046;-81
2022/05/22 04:04:35;;;;;;;;;;;;;;;20.08;38.69;99809.75;4400234;32;20041;-83
2022/05/22 04:07:03;;;;;;;;;;;;;;;19.82;39.93;99812.97;4400596;32;20883;-79
2022/05/22 04:09:29;;;;;;;;;;;;;;;20.08;39.07;99808.88;4400571;32;19986;-81
2022/05/22 04:11:57;;;;;;;;;;;;;;;19.98;39.43;99813.50;4398548;32;20394;-81
2022/05/22 04:14:25;;;;;;;;;;;;;;;20.09;39.75;99816.72;4400362;32;19989;-80
2022/05/22 04:16:52;;;;;;;;;;;;;;;20.30;39.12;99815.38;4400454;32;19997;-82
2022/05/22 04:19:19;;;;;;;;;;;;;;;20.35;38.70;99810.84;4399168;32;20049;-80
2022/05/22 04:21:46;;;;;;;;;;;;;;;20.35;38.88;99818.72;4399796;32;20032;-83
2022/05/22 04:27:03;;;;;;;;;;;;;;;20.33;38.71;99817.91;4399886;32;19982;-80
2022/05/22 04:29:31;;;;;;;;;;;;;;;20.03;39.55;99826.50;4400219;32;19986;-82
2022/05/22 04:31:58;;;;;;;;;;;;;;;20.43;38.30;99822.03;4400671;32;19982;-81
2022/05/22 04:34:25;;;;;;;;;;;;;;;20.11;39.08;99819.31;4400410;32;20366;-81
2022/05/22 04:36:58;;;;;;;;;;;;;;;20.01;39.70;99817.81;4399056;32;20053;-82
2022/05/22 04:39:27;;;;;;;;;;;;;;;19.94;39.99;99815.31;4376029;32;787771;-81
2022/05/22 04:41:54;;;;;;;;;;;;;;;19.91;40.61;99815.41;4399425;32;19982;-80
2022/05/22 04:44:21;;;;;;;;;;;;;;;20.17;40.21;99813.94;4400622;32;19995;-78
2022/05/22 04:46:51;;;;;;;;;;;;;;;20.05;41.02;99814.22;4399993;32;19998;-82
2022/05/22 04:49:18;;;;;;;;;;;;;;;20.29;40.33;99818.87;4399415;32;19974;-82
2022/05/22 04:51:45;;;;;;;;;;;;;;;20.33;40.12;99815.28;4400121;32;20319;-81
2022/05/22 04:54:12;;;;;;;;;;;;;;;20.36;39.56;99820.47;4399750;32;20016;-80
2022/05/22 04:56:39;;;;;;;;;;;;;;;20.55;39.09;99826.19;4398976;32;19985;-84
2022/05/22 04:59:08;;;;;;;;;;;;;;;20.00;40.77;99831.84;4400124;32;20332;-83
2022/05/22 05:01:35;;;;;;;;;;;;;;;20.21;40.59;99826.09;4400432;32;19978;-83
2022/05/22 05:04:03;;;;;;;;;;;;;;;20.40;39.55;99822.12;4399576;32;20035;-80
2022/05/22 05:06:32;;;;;;;;;;;;;;;20.13;40.80;99823.66;4399492;32;20031;-82
2022/05/22 05:09:00;;;;;;;;;;;;;;;20.25;41.20;99817.22;4399949;32;19989;-84
2022/05/22 05:11:27;;;;;;;;;;;;;;;20.43;40.25;99822.03;4400320;32;20014;-82
2022/05/22 05:13:55;;;;;;;;;;;;;;;20.50;41.64;99821.91;4398265;32;20390;-80
2022/05/22 05:16:23;;;;;;;;;;;;;;;20.63;41.84;99825.97;4399889;32;19986;-82
2022/05/22 05:18:50;;;;;;;;;;;;;;;20.74;41.65;99821.31;4399460;32;19974;-80
2022/05/22 05:21:17;;;;;;;;;;;;;;;20.70;40.16;99819.66;4399093;32;20282;-81
2022/05/22 05:23:45;;;;;;;;;;;;;;;20.76;41.44;99819.50;4399908;32;20457;-83
2022/05/22 05:26:12;;;;;;;;;;;;;;;20.74;40.21;99818.69;4399448;32;20347;-81
2022/05/22 05:28:39;;;;;;;;;;;;;;;20.68;41.05;99821.47;4399341;32;20544;-82
2022/05/22 05:31:06;;;;;;;;;;;;;;;20.47;42.27;99821.97;4398724;32;19986;-81
2022/05/22 05:33:33;;;;;;;;;;;;;;;20.80;40.18;99826.37;4401497;32;20002;-82
2022/05/22 05:36:02;;;;;;;;;;;;;;;20.80;40.46;99825.53;4401312;32;20328;-80
2022/05/22 05:38:32;;;;;;;;;;;;;;;20.54;42.49;99831.47;4400455;32;20855;-80
2022/05/22 05:41:24;;;;;;;;;;;;;;;20.82;41.63;99831.63;4400380;32;20309;-82
2022/05/22 05:43:51;;;;;;;;;;;;;;;20.96;40.82;99833.87;4400809;32;20052;-82
2022/05/22 05:46:18;;;;;;;;;;;;;;;20.96;40.70;99836.53;4401407;32;20148;-81
2022/05/22 05:48:45;;;;;;;;;;;;;;;20.94;40.75;99833.94;4401098;32;20069;-80
2022/05/22 05:51:13;;;;;;;;;;;;;;;20.86;42.45;99831.50;4401316;32;20053;-79
2022/05/22 05:53:40;;;;;;;;;;;;;;;21.11;40.69;99836.97;4401514;32;19986;-80
2022/05/22 05:56:09;;;;;;;;;;;;;;;21.07;40.98;99834.47;4401729;32;20362;-81
2022/05/22 05:58:51;;;;;;;;;;;;;;;21.25;39.52;99839.25;4397673;32;20036;-80
2022/05/22 06:01:18;;;;;;;;;;;;;;;21.16;40.32;99834.22;4400437;32;20001;-80
2022/05/22 06:03:46;;;;;;;;;;;;;;;21.16;40.08;99834.22;4401379;32;19985;-82
2022/05/22 06:06:13;;;;;;;;;;;;;;;21.23;39.85;99834.91;4404805;32;19997;-81
2022/05/22 06:08:40;;;;;;;;;;;;;;;21.52;38.94;99831.50;4397815;32;20000;-82
2022/05/22 06:11:09;;;;;;;;;;;;;;;21.39;38.87;99819.59;4400294;32;19993;-81
2022/05/22 06:13:36;;;;;;;;;;;;;;;21.37;38.47;99823.09;4399360;32;19982;-81
2022/05/22 06:16:04;;;;;;;;;;;;;;;21.32;39.49;99818.87;4393902;32;20028;-80
2022/05/22 06:18:36;;;;;;;;;;;;;;;21.30;39.17;99816.25;4401454;32;20430;-81
2022/05/22 06:21:08;;;;;;;;;;;;;;;21.30;39.66;99820.69;4399817;32;20021;-81
2022/05/22 06:23:35;;;;;;;;;;;;;;;21.51;38.72;99829.78;4399860;32;20029;-81
2022/05/22 06:26:05;;;;;;;;;;;;;;;21.56;37.95;99825.22;4401364;32;20034;-81
2022/05/22 06:28:33;;;;;;;;;;;;;;;21.42;38.91;99827.41;4399602;32;19990;-81
2022/05/22 06:31:04;;;;;;;;;;;;;;;21.67;37.94;99832.84;4412370;32;20045;-81
2022/05/22 06:33:32;;;;;;;;;;;;;;;21.70;38.42;99825.69;4401069;32;20061;-81
2022/05/22 06:35:59;;;;;;;;;;;;;;;21.77;39.83;99827.22;4398586;32;19978;-81
2022/05/22 06:41:14;;;;;;;;;;;;;;;21.61;39.24;99810.16;4397949;32;20069;-81
2022/05/22 06:43:41;;;;;;;;;;;;;;;21.82;38.90;99817.44;4398451;32;20045;-81
2022/05/22 06:46:08;;;;;;;;;;;;;;;21.80;38.20;99821.88;4400060;32;19985;-81
2022/05/22 06:48:38;;;;;;;;;;;;;;;21.90;38.29;99826.88;4399194;32;19998;-82
2022/05/22 06:51:06;;;;;;;;;;;;;;;22.24;37.38;99827.56;4396934;32;20009;-81
2022/05/22 06:53:34;;;;;;;;;;;;;;;22.41;36.47;99823.53;4386308;32;20457;-81
2022/05/22 06:56:01;;;;;;;;;;;;;;;22.44;36.77;99828.69;4397477;32;20006;-80
2022/05/22 06:58:29;;;;;;;;;;;;;;;22.42;37.30;99819.97;4401028;32;20331;-81
2022/05/22 07:00:57;;;;;;;;;;;;;;;22.46;37.03;99809.28;4399670;32;20053;-80
2022/05/22 07:03:25;;;;;;;;;;;;;;;22.47;37.31;99812.78;4397895;32;19978;-79
2022/05/22 07:05:53;;;;;;;;;;;;;;;22.25;38.11;99808.19;4398743;32;20005;-82
2022/05/22 07:08:22;;;;;;;;;;;;;;;22.61;38.96;99805.25;4399554;32;19982;-81
2022/05/22 07:13:35;;;;;;;;;;;;;;;22.75;37.21;99797.72;4400824;32;19985;-80
2022/05/22 07:16:04;;;;;;;;;;;;;;;23.23;34.98;99797.81;4400574;32;20032;-79
2022/05/22 07:18:51;;;;;;;;;;;;;;;23.29;36.21;99798.47;4398672;32;19979;-81
2022/05/22 07:21:18;;;;;;;;;;;;;;;23.13;34.38;99798.19;4399950;32;19990;-80
2022/05/22 07:23:46;;;;;;;;;;;;;;;23.28;33.32;99803.81;4399259;32;20000;-80
2022/05/22 07:26:15;;;;;;;;;;;;;;;23.11;36.36;99800.00;4400834;32;20014;-81
2022/05/22 07:28:45;;;;;;;;;;;;;;;23.37;34.25;99795.56;4399623;32;19994;-80
2022/05/22 07:31:12;;;;;;;;;;;;;;;23.39;35.89;99793.72;4399792;32;19990;-80
2022/05/22 07:33:40;;;;;;;;;;;;;;;23.72;35.60;99786.31;4400931;32;20686;-80
2022/05/22 07:36:07;;;;;;;;;;;;;;;23.94;33.63;99791.62;4400559;32;20389;-80
2022/05/22 07:38:34;;;;;;;;;;;;;;;24.01;32.69;99793.09;4400209;32;19986;-80
2022/05/22 07:41:02;;;;;;;;;;;;;;;24.02;34.86;99792.16;4400758;32;19998;-80
2022/05/22 07:43:31;;;;;;;;;;;;;;;24.41;31.52;99788.88;4398801;32;20749;-80
2022/05/22 07:46:00;;;;;;;;;;;;;;;24.78;30.86;99784.66;4400539;32;19982;-80
2022/05/22 07:48:36;;;;;;;;;;;;;;;24.55;32.60;99778.56;4399165;32;19990;-80
2022/05/22 07:51:05;;;;;;;;;;;;;;;25.04;30.32;99779.06;4398815;32;19998;-79
2022/05/22 07:53:33;;;;;;;;;;;;;;;24.61;31.04;99776.59;4393572;32;19986;-80
2022/05/22 07:56:01;;;;;;;;;;;;;;;24.79;30.78;99779.31;4390239;32;20016;-80
2022/05/22 07:58:30;;;;;;;;;;;;;;;25.03;30.80;99774.69;4395567;32;19982;-80
2022/05/22 08:00:57;;;;;;;;;;;;;;;25.00;30.21;99769.53;4400334;32;19982;-80
2022/05/22 08:03:29;;;;;;;;;;;;;;;25.63;29.42;99768.50;4399223;32;20016;-80
2022/05/22 08:05:57;;;;;;;;;;;;;;;25.09;30.68;99772.72;4399637;32;20029;-80
2022/05/22 08:08:24;;;;;;;;;;;;;;;25.52;29.36;99783.09;4399200;32;20036;-80
2022/05/22 08:10:53;;;;;;;;;;;;;;;25.60;28.84;99772.16;4400484;32;19992;-80
2022/05/22 08:13:21;;;;;;;;;;;;;;;25.79;27.93;99764.19;4400395;32;19981;-79
2022/05/22 08:15:48;;;;;;;;;;;;;;;25.67;28.59;99759.47;4399707;32;20287;-79
2022/05/22 08:18:16;;;;;;;;;;;;;;;25.06;30.75;99750.72;4400083;32;19975;-79
2022/05/22 08:20:43;;;;;;;;;;;;;;;25.04;31.50;99755.22;4398006;32;20006;-80
2022/05/22 08:23:12;;;;;;;;;;;;;;;25.68;26.99;99745.25;4399690;32;20409;-80
2022/05/22 08:25:40;;;;;;;;;;;;;;;25.58;29.44;99751.94;4398987;32;19986;-79
2022/05/22 08:28:08;;;;;;;;;;;;;;;25.93;28.70;99751.13;4398249;32;19994;-81
2022/05/22 08:30:35;;;;;;;;;;;;;;;25.86;28.91;99749.72;4397522;32;20013;-81
2022/05/22 08:33:02;;;;;;;;;;;;;;;25.89;26.64;99752.22;4400273;32;20053;-80
2022/05/22 08:35:32;;;;;;;;;;;;;;;25.63;27.58;99744.63;4399789;32;19978;-80
2022/05/22 08:38:01;;;;;;;;;;;;;;;26.13;26.58;99746.62;4398090;32;19997;-80
2022/05/22 08:40:29;;;;;;;;;;;;;;;25.77;27.37;99739.53;4400235;32;19992;-80
2022/05/22 08:42:59;;;;;;;;;;;;;;;25.84;28.59;99738.31;4400366;32;20271;-80
2022/05/22 08:45:27;;;;;;;;;;;;;;;26.07;27.35;99736.31;4397745;32;19994;-80
2022/05/22 08:47:54;;;;;;;;;;;;;;;26.06;27.57;99742.56;4398573;32;20001;-79
2022/05/22 08:50:21;;;;;;;;;;;;;;;26.19;27.27;99735.72;4399509;32;19990;-81
2022/05/22 08:52:54;;;;;;;;;;;;;;;26.12;26.87;99724.56;4399573;32;19982;-81
2022/05/22 08:55:25;;;;;;;;;;;;;;;26.50;28.19;99728.91;4399894;32;19983;-81
2022/05/22 09:00:49;;;;;;;;;;;;;;;26.71;26.51;99722.50;4398565;32;19975;-80
2022/05/22 09:03:24;;;;;;;;;;;;;;;26.74;27.08;99717.03;4399973;32;19986;-80
2022/05/22 09:05:56;;;;;;;;;;;;;;;27.06;25.75;99719.75;4397951;32;20131;-80
2022/05/22 09:08:24;;;;;;;;;;;;;;;26.97;25.43;99713.13;4398593;32;19986;-81
2022/05/22 09:10:54;;;;;;;;;;;;;;;26.70;27.66;99719.91;4398546;32;19981;-80
2022/05/22 09:13:32;;;;;;;;;;;;;;;27.01;25.87;99705.84;4399099;32;19982;-80
2022/05/22 09:16:08;;;;;;;;;;;;;;;27.12;26.91;99716.75;4394535;32;20033;-80
2022/05/22 09:18:51;;;;;;;;;;;;;;;27.27;25.43;99704.47;4398070;32;20406;-79
2022/05/22 09:21:22;;;;;;;;;;;;;;;27.27;26.07;99705.31;4399572;32;20350;-81
2022/05/22 09:23:58;;;;;;;;;;;;;;;27.25;25.38;99696.59;4397787;32;19994;-80
2022/05/22 09:26:42;;;;;;;;;;;;;;;27.69;23.93;99695.87;4384683;32;19990;-80
2022/05/22 09:29:18;;;;;;;;;;;;;;;27.34;24.16;99697.84;4386433;32;20339;-80
2022/05/22 09:31:45;;;;;;;;;;;;;;;27.35;24.63;99697.78;4396751;32;20391;-80
2022/05/22 09:34:15;;;;;;;;;;;;;;;27.55;23.70;99694.00;4411464;32;20325;-80
2022/05/22 09:36:45;;;;;;;;;;;;;;;27.37;23.42;99690.56;4398679;32;19978;-80
2022/05/22 09:39:41;;;;;;;;;;;;;;;27.39;23.82;99676.34;4399446;32;19986;-80
2022/05/22 09:42:26;;;;;;;;;;;;;;;27.17;25.32;99688.16;4398888;32;19992;-80
2022/05/22 09:44:53;;;;;;;;;;;;;;;27.42;25.77;99692.12;4399321;32;20050;-81
2022/05/22 09:47:30;;;;;;;;;;;;;;;27.59;26.67;99694.69;4398751;32;19982;-81
2022/05/22 09:50:16;;;;;;;;;;;;;;;27.70;23.96;99679.00;4398066;32;19985;-82
2022/05/22 09:52:47;;;;;;;;;;;;;;;27.60;24.90;99675.16;4398529;32;20429;-81
2022/05/22 09:55:33;;;;;;;;;;;;;;;27.73;23.20;99676.16;4395697;32;19994;-80
2022/05/22 09:58:00;;;;;;;;;;;;;;;27.80;23.32;99682.84;4398906;32;19989;-80
2022/05/22 10:00:37;;;;;;;;;;;;;;;27.73;23.57;99670.84;4399179;32;20000;-81
2022/05/22 10:03:08;;;;;;;;;;;;;;;27.37;27.32;99669.28;4398841;32;20028;-80
2022/05/22 10:05:34;;;;;;;;;;;;;;;27.61;23.29;99676.84;4380567;32;20332;-81
2022/05/22 10:08:20;;;;;;;;;;;;;;;27.70;24.40;99676.31;4393552;32;20024;-81
2022/05/22 10:11:05;;;;;;;;;;;;;;;27.67;23.50;99676.50;4383712;32;20313;-80
2022/05/22 10:13:35;;;;;;;;;;;;;;;27.36;24.98;99669.41;4383019;32;20037;-81
2022/05/22 10:16:02;;;;;;;;;;;;;;;27.72;23.28;99663.78;4382492;32;20375;-80
2022/05/22 10:18:29;;;;;;;;;;;;;;;27.15;25.88;99663.47;4385210;32;20242;-80
2022/05/22 10:21:05;;;;;;;;;;;;;;;27.61;24.90;99660.03;4398409;32;20057;-81
2022/05/22 10:23:48;;;;;;;;;;;;;;;27.84;23.52;99661.41;4401006;32;19990;-80
2022/05/22 10:26:36;;;;;;;;;;;;;;;27.50;28.03;99658.81;4399497;32;19996;-81
2022/05/22 10:29:23;;;;;;;;;;;;;;;27.55;22.43;99653.25;4390470;32;20402;-81
2022/05/22 10:31:59;;;;;;;;;;;;;;;27.43;22.92;99640.66;4399228;32;19997;-80
2022/05/22 10:34:26;;;;;;;;;;;;;;;27.33;24.34;99641.19;4401280;32;20034;-80
2022/05/22 10:36:54;;;;;;;;;;;;;;;27.24;24.53;99636.38;4401272;32;20008;-80
2022/05/22 10:39:24;;;;;;;;;;;;;;;27.48;23.35;99638.62;4392296;32;19983;-80
2022/05/22 10:44:43;;;;;;;;;;;;;;;27.68;23.80;99635.66;4400415;32;19981;-79
2022/05/22 10:47:12;;;;;;;;;;;;;;;27.79;23.95;99633.28;4399444;32;20077;-81
2022/05/22 10:49:41;;;;;;;;;;;;;;;27.99;23.01;99620.59;4398756;32;19996;-80
2022/05/22 10:52:09;;;;;;;;;;;;;;;27.57;23.83;99648.72;4399613;32;19990;-80
2022/05/22 10:54:46;;;;;;;;;;;;;;;27.52;23.17;99640.16;4401046;32;20081;-80
2022/05/22 10:57:28;;;;;;;;;;;;;;;27.76;22.63;99638.75;4398952;32;19991;-80
2022/05/22 10:59:56;;;;;;;;;;;;;;;27.56;23.42;99626.56;4395933;32;19974;-79
2022/05/22 11:02:28;;;;;;;;;;;;;;;27.37;23.79;99649.84;4403808;32;19992;-82
2022/05/22 11:04:56;;;;;;;;;;;;;;;27.30;24.20;99646.66;4398895;32;20033;-80
2022/05/22 11:07:30;;;;;;;;;;;;;;;27.86;23.14;99644.41;4401088;32;19982;-79
2022/05/22 11:10:05;;;;;;;;;;;;;;;27.44;25.54;99658.31;4400381;32;19982;-81
2022/05/22 11:12:32;;;;;;;;;;;;;;;27.60;23.86;99648.56;4400501;32;19978;-80
2022/05/22 11:15:23;;;;;;;;;;;;;;;27.73;23.60;99638.06;4399483;32;20065;-79
2022/05/22 11:18:03;;;;;;;;;;;;;;;27.86;24.34;99643.56;4400119;32;19997;-80
2022/05/22 11:20:30;;;;;;;;;;;;;;;27.91;22.82;99636.16;4397779;32;20041;-80
2022/05/22 11:23:06;;;;;;;;;;;;;;;27.70;25.50;99633.78;4400558;32;19986;-79
2022/05/22 11:25:37;;;;;;;;;;;;;;;27.58;25.35;99623.84;4398573;32;20014;-80
2022/05/22 11:28:10;;;;;;;;;;;;;;;27.62;23.69;99620.06;4399168;32;19974;-79
2022/05/22 11:30:58;;;;;;;;;;;;;;;27.25;24.04;99621.28;4397448;32;20042;-79
2022/05/22 11:33:25;;;;;;;;;;;;;;;27.60;22.90;99621.97;4400708;32;20041;-80
2022/05/22 11:36:11;;;;;;;;;;;;;;;27.49;26.20;99625.22;4401152;32;20065;-80
2022/05/22 11:38:58;;;;;;;;;;;;;;;27.67;22.66;99623.31;4401984;32;20053;-80
2022/05/22 11:41:29;;;;;;;;;;;;;;;27.67;23.41;99610.00;4385512;32;19993;-81
2022/05/22 11:44:02;;;;;;;;;;;;;;;27.56;24.98;99604.44;4384106;32;20443;-80
2022/05/22 11:46:49;;;;;;;;;;;;;;;27.96;24.15;99605.66;4394940;32;20045;-80
2022/05/22 11:49:23;;;;;;;;;;;;;;;27.71;23.92;99600.91;4400842;32;20418;-80
2022/05/22 11:51:56;;;;;;;;;;;;;;;27.65;23.70;99606.56;4399955;32;19980;-80
2022/05/22 11:54:38;;;;;;;;;;;;;;;27.66;23.90;99600.28;4400365;32;20308;-80
2022/05/22 11:57:18;;;;;;;;;;;;;;;27.58;25.99;99608.75;4406138;32;20045;-80
2022/05/22 11:59:56;;;;;;;;;;;;;;;27.50;24.89;99600.34;4395294;32;20024;-81
2022/05/22 12:02:35;;;;;;;;;;;;;;;27.65;24.22;99593.28;4381244;32;19990;-79
2022/05/22 12:05:11;;;;;;;;;;;;;;;27.96;24.70;99587.03;4395510;32;19989;-81
2022/05/22 12:07:38;;;;;;;;;;;;;;;27.93;24.52;99576.59;4396073;32;20004;-81
2022/05/22 12:10:13;;;;;;;;;;;;;;;27.98;22.98;99569.19;4396686;32;20105;-80
2022/05/22 12:12:46;;;;;;;;;;;;;;;27.79;22.58;99580.06;4382218;32;19986;-82
2022/05/22 12:15:13;;;;;;;;;;;;;;;27.31;24.73;99579.28;4402610;32;20091;-81
2022/05/22 12:17:49;;;;;;;;;;;;;;;27.48;23.27;99569.47;4396429;32;20025;-79
2022/05/22 12:20:19;;;;;;;;;;;;;;;27.59;23.46;99580.34;4394890;32;21365;-80
2022/05/22 12:25:44;;;;;;;;;;;;;;;27.94;23.93;99566.78;4402911;32;20010;-81
2022/05/22 12:28:30;;;;;;;;;;;;;;;27.81;23.87;99562.19;4394746;32;19990;-81
2022/05/22 12:30:58;;;;;;;;;;;;;;;27.85;23.66;99564.69;4395892;32;19978;-82
2022/05/22 12:33:27;;;;;;;;;;;;;;;27.72;24.06;99568.03;4404730;32;20346;-81
2022/05/22 12:35:53;;;;;;;;;;;;;;;27.54;23.10;99558.50;4401433;32;19982;-80
2022/05/22 12:38:22;;;;;;;;;;;;;;;27.61;23.57;99565.16;4397208;32;20069;-80
2022/05/22 12:40:50;;;;;;;;;;;;;;;27.43;25.70;99563.56;4396998;32;20800;-82
2022/05/22 12:43:18;;;;;;;;;;;;;;;27.46;24.47;99558.06;4385909;32;19970;-81
2022/05/22 12:45:52;;;;;;;;;;;;;;;27.53;24.90;99567.41;4405549;32;20000;-80
2022/05/22 12:48:35;;;;;;;;;;;;;;;27.73;23.72;99552.94;4393122;32;20078;-82
2022/05/22 12:51:21;;;;;;;;;;;;;;;27.34;24.34;99552.50;4397546;32;19986;-78
2022/05/22 12:53:48;;;;;;;;;;;;;;;27.64;23.41;99553.50;4392451;32;19974;-80
2022/05/22 12:56:17;;;;;;;;;;;;;;;27.46;24.59;99547.44;4391858;32;19990;-82
2022/05/22 12:58:47;;;;;;;;;;;;;;;27.75;24.77;99557.22;4392861;32;20058;-80
2022/05/22 13:01:28;;;;;;;;;;;;;;;27.17;26.09;99547.31;4390544;32;20004;-81
2022/05/22 13:03:57;;;;;;;;;;;;;;;27.74;24.37;99536.87;4392790;32;20030;-80
2022/05/22 13:06:34;;;;;;;;;;;;;;;27.83;23.83;99542.66;4401096;32;20328;-81
2022/05/22 13:09:06;;;;;;;;;;;;;;;27.97;24.52;99545.31;4402627;32;20085;-80
2022/05/22 13:11:38;;;;;;;;;;;;;;;27.98;23.38;99536.37;4389951;32;19990;-81
2022/05/22 13:14:27;;;;;;;;;;;;;;;27.65;23.56;99534.78;4399653;32;19970;-79
2022/05/22 13:16:54;;;;;;;;;;;;;;;27.29;24.09;99543.97;4393298;32;19998;-79
2022/05/22 13:19:22;;;;;;;;;;;;;;;27.12;24.97;99536.94;4399203;32;19997;-81